Main page
METAR-TAF:

METAR-TAF

Airports :

Djibouti, Djibouti

Djibouti–Ambouli International Airport

latitude: 11-33N, longitude: 043-10E, elevation: 49 m

METAR: missing

Time: 00:03 (21:03 UTC)

Forecast

The report was made 4 hours and 3 minutes ago, at 17:00 UTC
Forecast valid from 20 at 18 UTC to 21 at 18 UTC
Wind 3 kt from variable directions
Visibility 10 km or more
Scattered clouds at a height of 2000 ft
Scattered clouds at a height of 3000 ft
Becoming
from 21 at 06 UTC to 21 at 12 UTC
Wind 10 kt from the East
Scattered clouds at a height of 2300 ft

TAF: HDAM 201700Z 2018/2118 VRB03KT 9999 SCT020 SCT030 BECMG 2106/2112 08010KT SCT023

Weather observations and forecasts of more than 4000 airports (METAR and TAF reports).

The available stations are represented by yellow and red dots on the map.

Hover mouse over dot to see the name of the station.

Then click to see weather observations and forecasts.

To change the map : click on the green buttons with a black cross to zoom in, on the green button with a dash to zoom out, or on the green arrows for adjacent maps.


METAR-TAF: